sensor_id;sensor_type;location;lat;lon;timestamp;P1;durP1;ratioP1;P2;durP2;ratioP2
44440;SDS011;30146;52.268;20.944;2023-03-01T00:01:37;73.30;;;35.30;;
44440;SDS011;30146;52.268;20.944;2023-03-01T00:04:06;69.60;;;33.40;;
44440;SDS011;30146;52.268;20.944;2023-03-01T00:06:35;78.00;;;35.50;;
44440;SDS011;30146;52.268;20.944;2023-03-01T00:09:04;78.50;;;36.20;;
44440;SDS011;30146;52.268;20.944;2023-03-01T00:11:32;72.40;;;34.50;;
44440;SDS011;30146;52.268;20.944;2023-03-01T00:14:01;79.10;;;35.30;;
44440;SDS011;30146;52.268;20.944;2023-03-01T00:16:32;84.60;;;36.30;;
44440;SDS011;30146;52.268;20.944;2023-03-01T00:19:02;86.80;;;34.00;;
44440;SDS011;30146;52.268;20.944;2023-03-01T00:21:30;86.40;;;36.20;;
44440;SDS011;30146;52.268;20.944;2023-03-01T00:23:58;80.80;;;36.00;;
44440;SDS011;30146;52.268;20.944;2023-03-01T00:26:26;74.90;;;34.20;;
44440;SDS011;30146;52.268;20.944;2023-03-01T00:28:56;75.30;;;33.90;;
44440;SDS011;30146;52.268;20.944;2023-03-01T00:31:27;76.90;;;36.30;;
44440;SDS011;30146;52.268;20.944;2023-03-01T00:33:57;80.00;;;35.70;;
44440;SDS011;30146;52.268;20.944;2023-03-01T00:36:27;89.60;;;37.60;;
44440;SDS011;30146;52.268;20.944;2023-03-01T00:38:57;80.50;;;38.10;;
44440;SDS011;30146;52.268;20.944;2023-03-01T00:41:26;86.00;;;36.50;;
44440;SDS011;30146;52.268;20.944;2023-03-01T00:43:54;87.10;;;38.50;;
44440;SDS011;30146;52.268;20.944;2023-03-01T00:46:23;74.00;;;37.50;;
44440;SDS011;30146;52.268;20.944;2023-03-01T00:48:53;87.70;;;37.60;;
44440;SDS011;30146;52.268;20.944;2023-03-01T00:51:21;83.80;;;37.20;;
44440;SDS011;30146;52.268;20.944;2023-03-01T00:53:50;87.00;;;38.70;;
44440;SDS011;30146;52.268;20.944;2023-03-01T00:56:19;91.10;;;39.90;;
44440;SDS011;30146;52.268;20.944;2023-03-01T00:58:48;89.00;;;41.00;;
44440;SDS011;30146;52.268;20.944;2023-03-01T01:01:17;97.30;;;39.50;;
44440;SDS011;30146;52.268;20.944;2023-03-01T01:03:50;89.10;;;38.90;;
44440;SDS011;30146;52.268;20.944;2023-03-01T01:06:20;92.00;;;38.00;;
44440;SDS011;30146;52.268;20.944;2023-03-01T01:08:50;79.90;;;38.60;;
44440;SDS011;30146;52.268;20.944;2023-03-01T01:11:19;83.00;;;37.40;;
44440;SDS011;30146;52.268;20.944;2023-03-01T01:13:48;83.40;;;37.10;;
44440;SDS011;30146;52.268;20.944;2023-03-01T01:16:18;78.80;;;38.20;;
44440;SDS011;30146;52.268;20.944;2023-03-01T01:18:48;81.40;;;36.90;;
44440;SDS011;30146;52.268;20.944;2023-03-01T01:21:18;85.40;;;37.70;;
44440;SDS011;30146;52.268;20.944;2023-03-01T01:23:47;85.70;;;37.50;;
44440;SDS011;30146;52.268;20.944;2023-03-01T01:26:17;77.50;;;35.60;;
44440;SDS011;30146;52.268;20.944;2023-03-01T01:28:46;85.30;;;38.30;;
44440;SDS011;30146;52.268;20.944;2023-03-01T01:31:15;84.70;;;37.90;;
44440;SDS011;30146;52.268;20.944;2023-03-01T01:33:44;75.80;;;34.90;;
44440;SDS011;30146;52.268;20.944;2023-03-01T01:36:13;79.00;;;35.80;;
44440;SDS011;30146;52.268;20.944;2023-03-01T01:38:41;79.20;;;34.80;;
44440;SDS011;30146;52.268;20.944;2023-03-01T01:41:09;75.60;;;34.60;;
44440;SDS011;30146;52.268;20.944;2023-03-01T01:43:39;83.50;;;33.20;;
44440;SDS011;30146;52.268;20.944;2023-03-01T01:46:12;79.60;;;35.00;;
44440;SDS011;30146;52.268;20.944;2023-03-01T01:48:52;64.70;;;32.20;;
44440;SDS011;30146;52.268;20.944;2023-03-01T01:51:25;81.10;;;33.00;;
44440;SDS011;30146;52.268;20.944;2023-03-01T01:53:57;78.70;;;38.20;;
44440;SDS011;30146;52.268;20.944;2023-03-01T01:56:27;77.00;;;35.00;;
44440;SDS011;30146;52.268;20.944;2023-03-01T01:58:57;82.80;;;36.20;;
44440;SDS011;30146;52.268;20.944;2023-03-01T02:01:26;71.50;;;34.90;;
44440;SDS011;30146;52.268;20.944;2023-03-01T02:03:54;93.00;;;37.70;;
44440;SDS011;30146;52.268;20.944;2023-03-01T02:06:24;82.60;;;37.50;;
44440;SDS011;30146;52.268;20.944;2023-03-01T02:08:57;83.90;;;35.40;;
44440;SDS011;30146;52.268;20.944;2023-03-01T02:11:31;78.50;;;36.60;;
44440;SDS011;30146;52.268;20.944;2023-03-01T02:14:00;84.20;;;36.90;;
44440;SDS011;30146;52.268;20.944;2023-03-01T02:16:28;83.90;;;36.70;;
44440;SDS011;30146;52.268;20.944;2023-03-01T02:18:57;87.10;;;38.70;;
44440;SDS011;30146;52.268;20.944;2023-03-01T02:21:36;79.80;;;36.30;;
44440;SDS011;30146;52.268;20.944;2023-03-01T02:24:13;80.30;;;35.60;;
44440;SDS011;30146;52.268;20.944;2023-03-01T02:26:50;81.90;;;36.50;;
44440;SDS011;30146;52.268;20.944;2023-03-01T02:29:21;81.10;;;37.20;;
44440;SDS011;30146;52.268;20.944;2023-03-01T02:31:50;81.50;;;36.10;;
44440;SDS011;30146;52.268;20.944;2023-03-01T02:36:55;80.00;;;35.60;;
44440;SDS011;30146;52.268;20.944;2023-03-01T02:39:27;83.20;;;35.80;;
44440;SDS011;30146;52.268;20.944;2023-03-01T02:42:00;76.90;;;37.50;;
44440;SDS011;30146;52.268;20.944;2023-03-01T02:44:30;78.00;;;35.20;;
44440;SDS011;30146;52.268;20.944;2023-03-01T02:46:59;80.70;;;37.70;;
44440;SDS011;30146;52.268;20.944;2023-03-01T02:49:30;76.80;;;36.20;;
44440;SDS011;30146;52.268;20.944;2023-03-01T02:52:04;79.40;;;36.40;;
44440;SDS011;30146;52.268;20.944;2023-03-01T02:54:43;86.80;;;37.90;;
44440;SDS011;30146;52.268;20.944;2023-03-01T02:57:18;76.10;;;37.80;;
44440;SDS011;30146;52.268;20.944;2023-03-01T02:59:47;84.20;;;36.30;;
44440;SDS011;30146;52.268;20.944;2023-03-01T03:02:20;85.90;;;35.80;;
44440;SDS011;30146;52.268;20.944;2023-03-01T03:05:07;93.60;;;37.00;;
44440;SDS011;30146;52.268;20.944;2023-03-01T03:07:37;77.00;;;36.10;;
44440;SDS011;30146;52.268;20.944;2023-03-01T03:10:08;77.20;;;36.90;;
44440;SDS011;30146;52.268;20.944;2023-03-01T03:12:39;79.10;;;35.40;;
44440;SDS011;30146;52.268;20.944;2023-03-01T03:15:09;83.80;;;36.70;;
44440;SDS011;30146;52.268;20.944;2023-03-01T03:17:40;85.30;;;38.20;;
44440;SDS011;30146;52.268;20.944;2023-03-01T03:20:27;79.70;;;37.00;;
44440;SDS011;30146;52.268;20.944;2023-03-01T03:22:57;89.40;;;37.00;;
44440;SDS011;30146;52.268;20.944;2023-03-01T03:25:27;83.10;;;37.00;;
44440;SDS011;30146;52.268;20.944;2023-03-01T03:27:56;77.70;;;38.60;;
44440;SDS011;30146;52.268;20.944;2023-03-01T03:30:25;72.70;;;34.30;;
44440;SDS011;30146;52.268;20.944;2023-03-01T03:32:55;84.90;;;36.10;;
44440;SDS011;30146;52.268;20.944;2023-03-01T03:35:25;90.00;;;38.30;;
44440;SDS011;30146;52.268;20.944;2023-03-01T03:37:56;80.90;;;36.30;;
44440;SDS011;30146;52.268;20.944;2023-03-01T03:40:29;76.80;;;35.00;;
44440;SDS011;30146;52.268;20.944;2023-03-01T03:42:58;86.50;;;38.20;;
44440;SDS011;30146;52.268;20.944;2023-03-01T03:45:27;78.90;;;35.60;;
44440;SDS011;30146;52.268;20.944;2023-03-01T03:47:55;73.50;;;35.50;;
44440;SDS011;30146;52.268;20.944;2023-03-01T03:50:23;74.70;;;34.80;;
44440;SDS011;30146;52.268;20.944;2023-03-01T03:52:51;74.10;;;35.30;;
44440;SDS011;30146;52.268;20.944;2023-03-01T03:55:19;75.90;;;34.10;;
44440;SDS011;30146;52.268;20.944;2023-03-01T03:57:47;73.00;;;36.00;;
44440;SDS011;30146;52.268;20.944;2023-03-01T04:00:19;81.20;;;33.30;;
44440;SDS011;30146;52.268;20.944;2023-03-01T04:02:50;75.80;;;35.00;;
44440;SDS011;30146;52.268;20.944;2023-03-01T04:05:22;76.70;;;35.30;;
44440;SDS011;30146;52.268;20.944;2023-03-01T04:07:51;67.40;;;31.70;;
44440;SDS011;30146;52.268;20.944;2023-03-01T04:10:28;76.00;;;34.30;;
44440;SDS011;30146;52.268;20.944;2023-03-01T04:12:57;68.70;;;34.20;;
44440;SDS011;30146;52.268;20.944;2023-03-01T04:15:26;79.60;;;35.00;;
44440;SDS011;30146;52.268;20.944;2023-03-01T04:17:55;77.30;;;34.30;;
44440;SDS011;30146;52.268;20.944;2023-03-01T04:20:24;78.40;;;36.60;;
44440;SDS011;30146;52.268;20.944;2023-03-01T04:22:57;83.60;;;36.40;;
44440;SDS011;30146;52.268;20.944;2023-03-01T04:25:35;85.50;;;35.00;;
44440;SDS011;30146;52.268;20.944;2023-03-01T04:28:04;76.70;;;34.00;;
44440;SDS011;30146;52.268;20.944;2023-03-01T04:30:34;74.40;;;34.90;;
44440;SDS011;30146;52.268;20.944;2023-03-01T04:33:03;82.20;;;35.90;;
44440;SDS011;30146;52.268;20.944;2023-03-01T04:35:32;75.90;;;33.90;;
44440;SDS011;30146;52.268;20.944;2023-03-01T04:38:01;83.30;;;37.00;;
44440;SDS011;30146;52.268;20.944;2023-03-01T04:40:30;84.50;;;35.70;;
44440;SDS011;30146;52.268;20.944;2023-03-01T04:42:58;70.70;;;34.40;;
44440;SDS011;30146;52.268;20.944;2023-03-01T04:45:26;79.00;;;34.00;;
44440;SDS011;30146;52.268;20.944;2023-03-01T04:47:55;76.90;;;35.20;;
44440;SDS011;30146;52.268;20.944;2023-03-01T04:50:24;72.10;;;34.30;;
44440;SDS011;30146;52.268;20.944;2023-03-01T04:52:52;85.40;;;35.20;;
44440;SDS011;30146;52.268;20.944;2023-03-01T04:55:21;75.20;;;33.30;;
44440;SDS011;30146;52.268;20.944;2023-03-01T04:57:52;76.80;;;33.10;;
44440;SDS011;30146;52.268;20.944;2023-03-01T05:00:21;74.70;;;35.50;;
44440;SDS011;30146;52.268;20.944;2023-03-01T05:02:50;70.60;;;34.40;;
44440;SDS011;30146;52.268;20.944;2023-03-01T05:05:21;82.60;;;35.40;;
44440;SDS011;30146;52.268;20.944;2023-03-01T05:07:52;72.10;;;35.20;;
44440;SDS011;30146;52.268;20.944;2023-03-01T05:10:22;69.90;;;34.90;;
44440;SDS011;30146;52.268;20.944;2023-03-01T05:12:51;76.20;;;34.10;;
44440;SDS011;30146;52.268;20.944;2023-03-01T05:15:19;78.90;;;35.70;;
44440;SDS011;30146;52.268;20.944;2023-03-01T05:17:52;76.80;;;35.30;;
44440;SDS011;30146;52.268;20.944;2023-03-01T05:20:28;74.90;;;34.40;;
44440;SDS011;30146;52.268;20.944;2023-03-01T05:22:57;80.80;;;35.80;;
44440;SDS011;30146;52.268;20.944;2023-03-01T05:25:31;92.00;;;36.80;;
44440;SDS011;30146;52.268;20.944;2023-03-01T05:28:00;77.40;;;35.70;;
44440;SDS011;30146;52.268;20.944;2023-03-01T05:30:31;81.70;;;36.20;;
44440;SDS011;30146;52.268;20.944;2023-03-01T05:33:00;83.30;;;35.50;;
44440;SDS011;30146;52.268;20.944;2023-03-01T05:35:29;81.50;;;36.30;;
44440;SDS011;30146;52.268;20.944;2023-03-01T05:38:00;76.10;;;35.20;;
44440;SDS011;30146;52.268;20.944;2023-03-01T05:40:30;80.70;;;37.70;;
44440;SDS011;30146;52.268;20.944;2023-03-01T05:43:00;88.40;;;36.40;;
44440;SDS011;30146;52.268;20.944;2023-03-01T05:45:32;73.10;;;35.60;;
44440;SDS011;30146;52.268;20.944;2023-03-01T05:48:02;75.50;;;36.20;;
44440;SDS011;30146;52.268;20.944;2023-03-01T05:53:27;94.90;;;35.40;;
44440;SDS011;30146;52.268;20.944;2023-03-01T05:55:57;70.20;;;33.90;;
44440;SDS011;30146;52.268;20.944;2023-03-01T06:01:52;76.00;;;33.30;;
44440;SDS011;30146;52.268;20.944;2023-03-01T06:04:20;79.60;;;35.90;;
44440;SDS011;30146;52.268;20.944;2023-03-01T06:06:48;77.80;;;36.20;;
44440;SDS011;30146;52.268;20.944;2023-03-01T06:09:16;67.90;;;34.30;;
44440;SDS011;30146;52.268;20.944;2023-03-01T06:11:47;78.00;;;38.40;;
44440;SDS011;30146;52.268;20.944;2023-03-01T06:14:18;75.30;;;35.90;;
44440;SDS011;30146;52.268;20.944;2023-03-01T06:16:47;77.40;;;36.80;;
44440;SDS011;30146;52.268;20.944;2023-03-01T06:19:15;84.80;;;37.30;;
44440;SDS011;30146;52.268;20.944;2023-03-01T06:21:44;72.20;;;37.70;;
44440;SDS011;30146;52.268;20.944;2023-03-01T06:24:12;80.10;;;37.80;;
44440;SDS011;30146;52.268;20.944;2023-03-01T06:26:40;71.00;;;37.20;;
44440;SDS011;30146;52.268;20.944;2023-03-01T06:29:09;75.10;;;38.70;;
44440;SDS011;30146;52.268;20.944;2023-03-01T06:32:02;79.00;;;37.70;;
44440;SDS011;30146;52.268;20.944;2023-03-01T06:35:14;77.30;;;37.40;;
44440;SDS011;30146;52.268;20.944;2023-03-01T06:37:44;74.40;;;35.20;;
44440;SDS011;30146;52.268;20.944;2023-03-01T06:40:14;77.50;;;37.70;;
44440;SDS011;30146;52.268;20.944;2023-03-01T06:42:43;76.00;;;36.60;;
44440;SDS011;30146;52.268;20.944;2023-03-01T06:45:16;66.00;;;34.30;;
44440;SDS011;30146;52.268;20.944;2023-03-01T06:47:46;69.30;;;35.90;;
44440;SDS011;30146;52.268;20.944;2023-03-01T06:50:14;67.40;;;34.50;;
44440;SDS011;30146;52.268;20.944;2023-03-01T06:56:18;67.60;;;34.10;;
44440;SDS011;30146;52.268;20.944;2023-03-01T06:58:51;65.10;;;35.30;;
44440;SDS011;30146;52.268;20.944;2023-03-01T07:07:30;64.80;;;35.10;;
44440;SDS011;30146;52.268;20.944;2023-03-01T07:09:59;58.00;;;32.70;;
44440;SDS011;30146;52.268;20.944;2023-03-01T07:12:27;55.90;;;33.90;;
44440;SDS011;30146;52.268;20.944;2023-03-01T07:14:56;63.50;;;33.50;;
44440;SDS011;30146;52.268;20.944;2023-03-01T07:17:24;55.30;;;32.60;;
44440;SDS011;30146;52.268;20.944;2023-03-01T07:19:52;62.00;;;32.30;;
44440;SDS011;30146;52.268;20.944;2023-03-01T07:22:21;61.40;;;31.60;;
44440;SDS011;30146;52.268;20.944;2023-03-01T07:24:54;65.50;;;35.60;;
44440;SDS011;30146;52.268;20.944;2023-03-01T07:27:23;63.60;;;36.70;;
44440;SDS011;30146;52.268;20.944;2023-03-01T07:29:51;56.00;;;33.60;;
44440;SDS011;30146;52.268;20.944;2023-03-01T07:32:19;54.30;;;32.50;;
44440;SDS011;30146;52.268;20.944;2023-03-01T07:34:48;61.10;;;33.40;;
44440;SDS011;30146;52.268;20.944;2023-03-01T07:37:17;62.70;;;33.50;;
44440;SDS011;30146;52.268;20.944;2023-03-01T07:39:46;56.10;;;32.90;;
44440;SDS011;30146;52.268;20.944;2023-03-01T07:42:14;56.30;;;30.70;;
44440;SDS011;30146;52.268;20.944;2023-03-01T07:44:43;56.60;;;31.70;;
44440;SDS011;30146;52.268;20.944;2023-03-01T07:47:11;51.40;;;29.30;;
44440;SDS011;30146;52.268;20.944;2023-03-01T07:49:42;50.20;;;29.40;;
44440;SDS011;30146;52.268;20.944;2023-03-01T07:52:11;45.40;;;27.30;;
44440;SDS011;30146;52.268;20.944;2023-03-01T07:54:41;45.50;;;27.90;;
44440;SDS011;30146;52.268;20.944;2023-03-01T07:57:11;47.00;;;26.90;;
44440;SDS011;30146;52.268;20.944;2023-03-01T07:59:40;43.30;;;27.00;;
44440;SDS011;30146;52.268;20.944;2023-03-01T08:02:09;43.40;;;27.60;;
44440;SDS011;30146;52.268;20.944;2023-03-01T08:04:38;40.50;;;26.10;;
44440;SDS011;30146;52.268;20.944;2023-03-01T08:07:06;40.90;;;26.10;;
44440;SDS011;30146;52.268;20.944;2023-03-01T08:09:35;45.40;;;26.20;;
44440;SDS011;30146;52.268;20.944;2023-03-01T08:12:04;39.90;;;24.80;;
44440;SDS011;30146;52.268;20.944;2023-03-01T08:14:35;37.40;;;23.60;;
44440;SDS011;30146;52.268;20.944;2023-03-01T08:17:04;41.20;;;23.70;;
44440;SDS011;30146;52.268;20.944;2023-03-01T08:19:32;37.20;;;24.10;;
44440;SDS011;30146;52.268;20.944;2023-03-01T08:22:06;36.80;;;24.10;;
44440;SDS011;30146;52.268;20.944;2023-03-01T08:27:17;35.70;;;22.00;;
44440;SDS011;30146;52.268;20.944;2023-03-01T08:29:53;33.40;;;23.20;;
44440;SDS011;30146;52.268;20.944;2023-03-01T08:32:24;33.80;;;21.50;;
44440;SDS011;30146;52.268;20.944;2023-03-01T08:34:53;34.20;;;21.00;;
44440;SDS011;30146;52.268;20.944;2023-03-01T08:37:21;30.70;;;20.40;;
44440;SDS011;30146;52.268;20.944;2023-03-01T08:39:50;30.00;;;18.40;;
44440;SDS011;30146;52.268;20.944;2023-03-01T08:42:18;34.80;;;20.60;;
44440;SDS011;30146;52.268;20.944;2023-03-01T08:44:47;26.70;;;18.00;;
44440;SDS011;30146;52.268;20.944;2023-03-01T08:47:15;27.40;;;17.30;;
44440;SDS011;30146;52.268;20.944;2023-03-01T08:49:43;24.90;;;15.70;;
44440;SDS011;30146;52.268;20.944;2023-03-01T08:52:12;28.00;;;17.40;;
44440;SDS011;30146;52.268;20.944;2023-03-01T08:54:40;28.30;;;18.70;;
44440;SDS011;30146;52.268;20.944;2023-03-01T08:57:08;26.70;;;17.60;;
44440;SDS011;30146;52.268;20.944;2023-03-01T08:59:36;29.50;;;17.60;;
44440;SDS011;30146;52.268;20.944;2023-03-01T09:02:05;25.60;;;16.80;;
44440;SDS011;30146;52.268;20.944;2023-03-01T09:04:38;28.90;;;15.80;;
44440;SDS011;30146;52.268;20.944;2023-03-01T09:07:07;26.40;;;15.90;;
44440;SDS011;30146;52.268;20.944;2023-03-01T09:09:37;28.20;;;17.20;;
44440;SDS011;30146;52.268;20.944;2023-03-01T09:12:05;30.10;;;16.60;;
44440;SDS011;30146;52.268;20.944;2023-03-01T09:14:38;28.00;;;16.00;;
44440;SDS011;30146;52.268;20.944;2023-03-01T09:17:07;23.70;;;14.90;;
44440;SDS011;30146;52.268;20.944;2023-03-01T09:19:36;22.10;;;14.00;;
44440;SDS011;30146;52.268;20.944;2023-03-01T09:22:04;19.00;;;12.80;;
44440;SDS011;30146;52.268;20.944;2023-03-01T09:24:33;21.10;;;13.50;;
44440;SDS011;30146;52.268;20.944;2023-03-01T09:27:02;21.90;;;13.40;;
44440;SDS011;30146;52.268;20.944;2023-03-01T09:29:35;24.60;;;14.40;;
44440;SDS011;30146;52.268;20.944;2023-03-01T09:32:04;22.70;;;14.10;;
44440;SDS011;30146;52.268;20.944;2023-03-01T09:34:34;20.70;;;13.80;;
44440;SDS011;30146;52.268;20.944;2023-03-01T09:37:24;24.60;;;14.90;;
44440;SDS011;30146;52.268;20.944;2023-03-01T09:39:58;24.50;;;14.30;;
44440;SDS011;30146;52.268;20.944;2023-03-01T09:42:28;22.90;;;13.80;;
44440;SDS011;30146;52.268;20.944;2023-03-01T09:45:03;26.70;;;14.80;;
44440;SDS011;30146;52.268;20.944;2023-03-01T09:47:53;35.70;;;20.10;;
44440;SDS011;30146;52.268;20.944;2023-03-01T09:50:23;34.00;;;22.50;;
44440;SDS011;30146;52.268;20.944;2023-03-01T09:53:01;39.50;;;21.10;;
44440;SDS011;30146;52.268;20.944;2023-03-01T09:55:31;34.70;;;21.30;;
44440;SDS011;30146;52.268;20.944;2023-03-01T09:58:12;34.20;;;21.80;;
44440;SDS011;30146;52.268;20.944;2023-03-01T10:00:53;34.10;;;21.20;;
44440;SDS011;30146;52.268;20.944;2023-03-01T10:03:27;36.10;;;22.10;;
44440;SDS011;30146;52.268;20.944;2023-03-01T10:06:10;38.40;;;22.10;;
44440;SDS011;30146;52.268;20.944;2023-03-01T10:09:04;33.30;;;21.30;;
44440;SDS011;30146;52.268;20.944;2023-03-01T10:11:40;38.40;;;22.50;;
44440;SDS011;30146;52.268;20.944;2023-03-01T10:14:15;39.70;;;21.40;;
44440;SDS011;30146;52.268;20.944;2023-03-01T10:16:51;37.10;;;20.70;;
44440;SDS011;30146;52.268;20.944;2023-03-01T10:19:27;37.20;;;20.90;;
44440;SDS011;30146;52.268;20.944;2023-03-01T10:22:02;37.40;;;19.60;;
44440;SDS011;30146;52.268;20.944;2023-03-01T10:24:37;32.10;;;18.30;;
44440;SDS011;30146;52.268;20.944;2023-03-01T10:27:06;34.70;;;18.30;;
44440;SDS011;30146;52.268;20.944;2023-03-01T10:29:47;37.30;;;19.00;;
44440;SDS011;30146;52.268;20.944;2023-03-01T10:32:21;35.10;;;18.60;;
44440;SDS011;30146;52.268;20.944;2023-03-01T10:34:52;30.90;;;17.80;;
44440;SDS011;30146;52.268;20.944;2023-03-01T10:37:20;34.10;;;17.60;;
44440;SDS011;30146;52.268;20.944;2023-03-01T10:39:55;33.60;;;18.90;;
44440;SDS011;30146;52.268;20.944;2023-03-01T10:42:26;35.60;;;19.10;;
44440;SDS011;30146;52.268;20.944;2023-03-01T10:44:57;31.70;;;19.50;;
44440;SDS011;30146;52.268;20.944;2023-03-01T10:47:41;31.00;;;17.60;;
44440;SDS011;30146;52.268;20.944;2023-03-01T10:50:18;29.70;;;16.40;;
44440;SDS011;30146;52.268;20.944;2023-03-01T10:52:56;27.30;;;16.40;;
44440;SDS011;30146;52.268;20.944;2023-03-01T10:55:27;26.90;;;16.00;;
44440;SDS011;30146;52.268;20.944;2023-03-01T10:58:08;25.90;;;14.90;;
44440;SDS011;30146;52.268;20.944;2023-03-01T11:00:46;28.40;;;14.90;;
44440;SDS011;30146;52.268;20.944;2023-03-01T11:03:19;25.50;;;14.50;;
44440;SDS011;30146;52.268;20.944;2023-03-01T11:05:55;28.60;;;14.90;;
44440;SDS011;30146;52.268;20.944;2023-03-01T11:08:34;27.50;;;16.00;;
44440;SDS011;30146;52.268;20.944;2023-03-01T11:11:29;25.10;;;14.30;;
44440;SDS011;30146;52.268;20.944;2023-03-01T11:14:00;25.30;;;13.20;;
44440;SDS011;30146;52.268;20.944;2023-03-01T11:16:59;26.40;;;14.80;;
44440;SDS011;30146;52.268;20.944;2023-03-01T11:19:30;27.40;;;14.50;;
44440;SDS011;30146;52.268;20.944;2023-03-01T11:22:03;26.50;;;14.90;;
44440;SDS011;30146;52.268;20.944;2023-03-01T11:24:39;23.10;;;13.80;;
44440;SDS011;30146;52.268;20.944;2023-03-01T11:27:15;31.00;;;15.70;;
44440;SDS011;30146;52.268;20.944;2023-03-01T11:29:48;27.70;;;15.30;;
44440;SDS011;30146;52.268;20.944;2023-03-01T11:32:21;25.40;;;14.70;;
44440;SDS011;30146;52.268;20.944;2023-03-01T11:34:54;22.60;;;13.10;;
44440;SDS011;30146;52.268;20.944;2023-03-01T11:37:33;22.80;;;12.50;;
44440;SDS011;30146;52.268;20.944;2023-03-01T11:40:13;24.60;;;13.10;;
44440;SDS011;30146;52.268;20.944;2023-03-01T11:45:46;25.90;;;12.00;;
44440;SDS011;30146;52.268;20.944;2023-03-01T11:48:33;29.50;;;11.90;;
44440;SDS011;30146;52.268;20.944;2023-03-01T11:51:20;25.40;;;13.60;;
44440;SDS011;30146;52.268;20.944;2023-03-01T11:53:59;20.70;;;10.90;;
44440;SDS011;30146;52.268;20.944;2023-03-01T11:56:38;21.90;;;12.50;;
44440;SDS011;30146;52.268;20.944;2023-03-01T12:02:15;21.10;;;12.20;;
44440;SDS011;30146;52.268;20.944;2023-03-01T12:05:06;19.50;;;11.80;;
44440;SDS011;30146;52.268;20.944;2023-03-01T12:07:51;17.60;;;11.10;;
44440;SDS011;30146;52.268;20.944;2023-03-01T12:10:27;21.60;;;10.50;;
44440;SDS011;30146;52.268;20.944;2023-03-01T12:22:12;15.40;;;9.20;;
44440;SDS011;30146;52.268;20.944;2023-03-01T12:25:02;20.50;;;9.90;;
44440;SDS011;30146;52.268;20.944;2023-03-01T12:27:58;21.70;;;10.90;;
44440;SDS011;30146;52.268;20.944;2023-03-01T12:30:49;18.50;;;10.70;;
44440;SDS011;30146;52.268;20.944;2023-03-01T12:33:35;18.10;;;9.70;;
44440;SDS011;30146;52.268;20.944;2023-03-01T12:36:20;16.10;;;9.70;;
44440;SDS011;30146;52.268;20.944;2023-03-01T12:39:15;19.10;;;9.10;;
44440;SDS011;30146;52.268;20.944;2023-03-01T12:42:00;15.20;;;9.30;;
44440;SDS011;30146;52.268;20.944;2023-03-01T12:44:39;17.40;;;10.60;;
44440;SDS011;30146;52.268;20.944;2023-03-01T12:47:26;18.80;;;11.00;;
44440;SDS011;30146;52.268;20.944;2023-03-01T12:50:11;17.10;;;10.90;;
44440;SDS011;30146;52.268;20.944;2023-03-01T12:52:47;21.00;;;11.20;;
44440;SDS011;30146;52.268;20.944;2023-03-01T12:55:22;19.70;;;11.10;;
44440;SDS011;30146;52.268;20.944;2023-03-01T12:57:59;22.20;;;11.50;;
44440;SDS011;30146;52.268;20.944;2023-03-01T13:00:35;17.60;;;10.70;;
44440;SDS011;30146;52.268;20.944;2023-03-01T13:03:10;13.50;;;8.90;;
44440;SDS011;30146;52.268;20.944;2023-03-01T13:05:47;19.10;;;10.20;;
44440;SDS011;30146;52.268;20.944;2023-03-01T13:08:35;18.40;;;10.70;;
44440;SDS011;30146;52.268;20.944;2023-03-01T13:11:14;17.70;;;10.70;;
44440;SDS011;30146;52.268;20.944;2023-03-01T13:13:47;16.10;;;9.60;;
44440;SDS011;30146;52.268;20.944;2023-03-01T13:16:27;16.20;;;11.10;;
44440;SDS011;30146;52.268;20.944;2023-03-01T13:19:13;16.90;;;10.30;;
44440;SDS011;30146;52.268;20.944;2023-03-01T13:21:45;17.40;;;10.40;;
44440;SDS011;30146;52.268;20.944;2023-03-01T13:24:24;17.20;;;9.60;;
44440;SDS011;30146;52.268;20.944;2023-03-01T13:27:18;18.00;;;10.80;;
44440;SDS011;30146;52.268;20.944;2023-03-01T13:29:52;17.20;;;10.80;;
44440;SDS011;30146;52.268;20.944;2023-03-01T13:32:23;19.30;;;11.80;;
44440;SDS011;30146;52.268;20.944;2023-03-01T13:41:07;15.00;;;10.70;;
44440;SDS011;30146;52.268;20.944;2023-03-01T13:43:36;21.30;;;12.10;;
44440;SDS011;30146;52.268;20.944;2023-03-01T13:46:11;21.80;;;11.50;;
44440;SDS011;30146;52.268;20.944;2023-03-01T13:48:45;18.40;;;10.50;;
44440;SDS011;30146;52.268;20.944;2023-03-01T13:51:20;16.70;;;10.40;;
44440;SDS011;30146;52.268;20.944;2023-03-01T13:53:50;21.60;;;12.60;;
44440;SDS011;30146;52.268;20.944;2023-03-01T13:56:23;17.50;;;11.20;;
44440;SDS011;30146;52.268;20.944;2023-03-01T13:58:57;20.70;;;11.90;;
44440;SDS011;30146;52.268;20.944;2023-03-01T14:01:29;22.80;;;12.50;;
44440;SDS011;30146;52.268;20.944;2023-03-01T14:03:58;21.20;;;12.70;;
44440;SDS011;30146;52.268;20.944;2023-03-01T14:06:28;19.10;;;12.00;;
44440;SDS011;30146;52.268;20.944;2023-03-01T14:09:03;17.70;;;11.70;;
44440;SDS011;30146;52.268;20.944;2023-03-01T14:14:52;20.00;;;11.70;;
44440;SDS011;30146;52.268;20.944;2023-03-01T14:17:33;18.40;;;11.70;;
44440;SDS011;30146;52.268;20.944;2023-03-01T14:20:31;15.50;;;9.80;;
44440;SDS011;30146;52.268;20.944;2023-03-01T14:23:09;17.70;;;11.00;;
44440;SDS011;30146;52.268;20.944;2023-03-01T14:25:45;19.10;;;11.50;;
44440;SDS011;30146;52.268;20.944;2023-03-01T14:28:17;17.50;;;11.60;;
44440;SDS011;30146;52.268;20.944;2023-03-01T14:30:48;18.90;;;10.70;;
44440;SDS011;30146;52.268;20.944;2023-03-01T14:33:21;18.20;;;11.90;;
44440;SDS011;30146;52.268;20.944;2023-03-01T14:35:55;24.80;;;11.90;;
44440;SDS011;30146;52.268;20.944;2023-03-01T14:38:30;19.40;;;10.80;;
44440;SDS011;30146;52.268;20.944;2023-03-01T14:41:02;19.70;;;12.00;;
44440;SDS011;30146;52.268;20.944;2023-03-01T14:43:34;17.10;;;10.30;;
44440;SDS011;30146;52.268;20.944;2023-03-01T14:46:18;15.80;;;10.70;;
44440;SDS011;30146;52.268;20.944;2023-03-01T14:48:49;20.50;;;11.70;;
44440;SDS011;30146;52.268;20.944;2023-03-01T14:51:22;20.80;;;11.50;;
44440;SDS011;30146;52.268;20.944;2023-03-01T14:53:51;18.70;;;10.40;;
44440;SDS011;30146;52.268;20.944;2023-03-01T14:56:20;21.90;;;12.20;;
44440;SDS011;30146;52.268;20.944;2023-03-01T14:59:01;19.20;;;11.80;;
44440;SDS011;30146;52.268;20.944;2023-03-01T15:01:33;23.40;;;12.80;;
44440;SDS011;30146;52.268;20.944;2023-03-01T15:06:42;22.70;;;12.40;;
44440;SDS011;30146;52.268;20.944;2023-03-01T15:09:12;24.30;;;12.90;;
44440;SDS011;30146;52.268;20.944;2023-03-01T15:11:43;18.50;;;12.80;;
44440;SDS011;30146;52.268;20.944;2023-03-01T15:14:40;19.20;;;12.00;;
44440;SDS011;30146;52.268;20.944;2023-03-01T15:19:50;20.00;;;12.00;;
44440;SDS011;30146;52.268;20.944;2023-03-01T15:22:18;25.30;;;13.10;;
44440;SDS011;30146;52.268;20.944;2023-03-01T15:25:03;25.90;;;15.10;;
44440;SDS011;30146;52.268;20.944;2023-03-01T15:27:32;23.70;;;13.90;;
44440;SDS011;30146;52.268;20.944;2023-03-01T15:30:02;33.60;;;21.10;;
44440;SDS011;30146;52.268;20.944;2023-03-01T15:32:36;23.90;;;13.30;;